Latest Weather Observations for Maria Island

IDT60801

Issued at 1:01 pm EDT Monday 8 February 2016 (issued every 30 minutes, with the page automatically refreshed every 10 minutes)

About weather observations | Map of weather stations | Latest weather observations for TAS | Other Formats
Station Details ID: 092124 Name: MARIA ISLAND (POINT LESUEUR) Lat: -42.66 Lon: 148.02 Height: 28.0 m
Data from the previous 72 hours. | See also: Recent months at Maria Island
Date/Time
EDT
Temp
°C
App
Temp
°C
Dew
Point
Rel
Hum
%
Delta-T
°C
Wind Press
QNH
hPa
Press
MSL
hPa
Rain
since 9 am
mm
Dir
 
Spd
km/h
Gust
km/h
Spd
kts
Gust
kts
08/01:00pm 23.1 21.6 14.1 57 5.3 S 15 19 8 10 1017.3 1017.2 0.0
08/12:30pm 22.9 21.3 13.9 57 5.2 S 15 19 8 10 1017.3 1017.2 0.0
08/12:00pm 22.2 20.8 13.5 57 5.0 S 13 15 7 8 1017.5 1017.4 0.0
08/11:30am 21.5 20.5 14.6 65 4.1 S 13 20 7 11 1017.5 1017.4 0.0
08/11:00am 21.0 20.4 14.6 67 3.7 S 11 15 6 8 1017.7 1017.6 0.0
08/10:30am 20.6 19.1 15.2 71 3.2 S 17 20 9 11 1017.6 1017.5 0.0
08/10:00am 19.9 16.8 15.7 77 2.5 S 26 30 14 16 1017.9 1017.9 0.0
08/09:30am 19.9 19.4 16.0 78 2.3 S 13 19 7 10 1018.0 1018.0 0.0
08/09:00am 19.9 20.5 16.7 82 1.9 S 9 13 5 7 1018.0 1018.0 0.0
08/08:30am 18.8 19.6 16.4 86 1.4 S 7 11 4 6 1017.9 1017.9 0.0
08/08:00am 19.0 21.2 16.6 86 1.4 CALM 0 4 0 2 1017.6 1017.5 0.0
08/07:30am 18.0 20.2 16.5 91 0.9 CALM 0 0 0 0 1017.4 1017.3 0.0
08/07:00am 17.6 19.3 16.3 92 0.8 W 2 2 1 1 1017.0 1016.9 0.0
08/06:30am 17.8 19.2 16.3 91 0.9 WNW 4 6 2 3 1016.9 1016.8 0.0
08/06:00am 17.8 19.7 16.7 93 0.7 W 2 4 1 2 1016.7 1016.6 0.0
08/05:30am 17.8 19.4 16.8 94 0.6 W 4 4 2 2 1016.4 1016.3 0.0
08/05:00am 17.6 18.5 16.6 94 0.6 W 7 9 4 5 1016.5 1016.4 0.0
08/04:30am 18.1 19.4 17.0 93 0.7 SSW 6 7 3 4 1016.4 1016.3 0.0
08/04:00am 18.4 19.2 17.2 93 0.7 SSW 9 9 5 5 1016.4 1016.3 0.0
08/03:30am 18.6 21.1 17.3 92 0.8 CALM 0 2 0 1 1016.6 1016.5 0.0
08/03:00am 18.8 21.2 17.1 90 1.0 CALM 0 0 0 0 1016.7 1016.6 0.0
08/02:30am 19.1 20.5 17.4 90 1.0 S 6 7 3 4 1017.0 1016.9 0.0
08/02:00am 19.1 19.4 17.8 92 0.8 SSW 13 15 7 8 1017.1 1017.0 0.0
08/01:30am 19.1 20.2 17.1 88 1.2 SSW 7 9 4 5 1017.2 1017.1 0.0
08/01:00am 19.1 20.3 17.4 90 1.0 SW 7 7 4 4 1017.4 1017.3 0.0
08/12:30am 19.1 20.4 17.2 89 1.2 S 6 7 3 4 1017.5 1017.4 0.0
08/12:00am 19.1 20.2 17.2 89 1.2 SSE 7 9 4 5 1017.4 1017.3 0.0
 
Date/Time
EDT
Temp
°C
App
Temp
°C
Dew
Point
Rel
Hum
%
Delta-T
°C
Wind Press
QNH
hPa
Press
MSL
hPa
Rain
since 9 am
mm
Dir
 
Spd
km/h
Gust
km/h
Spd
kts
Gust
kts
07/11:30pm 19.1 20.1 16.9 87 1.3 SE 7 9 4 5 1017.6 1017.5 0.0
07/11:00pm 19.2 19.2 17.2 88 1.2 ESE 13 15 7 8 1017.8 1017.8 0.0
07/10:30pm 19.1 18.7 17.1 88 1.2 ESE 15 19 8 10 1017.8 1017.8 0.0
07/10:00pm 19.0 18.5 17.0 88 1.2 ESE 15 19 8 10 1017.8 1017.8 0.0
07/09:30pm 19.0 18.5 17.0 88 1.2 E 15 19 8 10 1017.7 1017.6 0.0
07/09:00pm 19.1 18.7 17.1 88 1.2 ESE 15 19 8 10 1017.5 1017.4 0.0
07/08:30pm 19.3 18.5 17.1 87 1.3 ESE 17 20 9 11 1017.3 1017.2 0.0
07/08:00pm 19.6 19.2 17.2 86 1.5 ESE 15 19 8 10 1017.2 1017.1 0.0
07/07:30pm 19.9 18.8 17.3 85 1.6 ESE 19 22 10 12 1016.9 1016.8 0.0
07/07:00pm 20.0 18.8 17.0 83 1.8 ESE 19 24 10 13 1016.5 1016.4 0.0
07/06:30pm 20.4 19.3 17.4 83 1.8 ESE 19 26 10 14 1016.2 1016.1 0.0
07/06:00pm 20.0 18.6 17.0 83 1.8 ESE 20 24 11 13 1016.3 1016.2 0.0
07/05:30pm 20.3 18.9 16.9 81 2.1 ESE 20 26 11 14 1016.3 1016.2 0.0
07/05:00pm 20.6 18.8 17.0 80 2.2 ESE 22 28 12 15 1016.5 1016.4 0.0
07/04:30pm 20.6 18.7 16.6 78 2.4 ESE 22 28 12 15 1016.4 1016.3 0.0
07/04:00pm 20.4 18.3 16.2 77 2.5 E 22 28 12 15 1016.5 1016.4 0.0
07/03:30pm 20.8 19.4 16.6 77 2.5 ESE 19 24 10 13 1016.7 1016.6 0.0
07/03:00pm 21.5 19.6 16.7 74 2.9 E 22 28 12 15 1016.7 1016.6 0.0
07/02:30pm 22.1 21.0 16.4 70 3.5 E 17 24 9 13 1016.9 1016.8 0.0
07/02:00pm 21.7 20.5 17.1 75 2.8 E 19 24 10 13 1016.9 1016.8 0.0
07/01:30pm 22.4 22.4 16.2 68 3.8 ESE 11 15 6 8 1017.1 1017.0 0.0
07/01:00pm 21.2 20.2 15.7 71 3.3 SSE 15 17 8 9 1017.3 1017.2 0.0
07/12:30pm 20.2 19.4 16.0 77 2.5 S 15 19 8 10 1017.5 1017.4 0.0
07/12:00pm 20.3 19.7 16.7 80 2.2 S 15 19 8 10 1017.8 1017.8 0.0
07/11:30am 19.6 18.1 16.8 84 1.7 SSW 20 24 11 13 1017.9 1017.9 0.0
07/11:00am 19.3 16.6 16.5 84 1.7 SSW 26 32 14 17 1017.9 1017.9 0.0
07/10:30am 19.0 16.2 16.4 85 1.6 SSW 26 30 14 16 1018.0 1018.0 0.0
07/10:00am 19.4 18.6 16.2 82 1.9 S 15 20 8 11 1018.0 1018.0 0.0
07/09:30am 19.4 18.4 15.7 79 2.2 SSW 15 19 8 10 1018.0 1018.0 0.0
07/09:00am 19.1 18.6 15.8 81 2.0 SSW 13 17 7 9 1017.9 1017.9 0.0
07/08:30am 19.4 19.4 15.3 77 2.4 WNW 9 11 5 6 1017.8 1017.8 0.0
07/08:00am 19.1 19.5 15.2 78 2.3 WNW 7 9 4 5 1017.6 1017.5 0.0
07/07:30am 19.1 18.9 14.6 75 2.6 NNW 9 9 5 5 1017.4 1017.3 0.0
07/07:00am 18.9 18.4 14.8 77 2.4 NNW 11 11 6 6 1017.2 1017.1 0.0
07/06:30am 18.7 17.6 15.2 80 2.1 NNW 15 17 8 9 1016.9 1016.8 0.0
07/06:00am 18.2 17.5 15.3 83 1.7 NW 13 13 7 7 1016.7 1016.6 0.0
07/05:30am 18.9 17.6 15.8 82 1.8 NNW 17 19 9 10 1016.3 1016.2 0.0
07/05:00am 18.9 17.1 15.4 80 2.1 N 19 22 10 12 1016.1 1016.0 0.0
07/04:30am 18.9 17.0 15.8 82 1.8 NNE 20 24 11 13 1015.8 1015.7 0.0
07/04:00am 18.6 17.4 16.0 85 1.5 NNE 17 22 9 12 1016.1 1016.0 0.0
07/03:30am 18.8 18.0 16.2 85 1.6 NNE 15 19 8 10 1016.4 1016.3 0.0
07/03:00am 18.6 18.1 16.0 85 1.5 NNE 13 15 7 8 1016.7 1016.6 0.0
07/02:30am 18.6 18.2 16.2 86 1.4 N 13 15 7 8 1016.8 1016.7 0.0
07/02:00am 18.7 17.5 16.1 85 1.5 NNE 17 20 9 11 1016.7 1016.6 0.0
07/01:30am 19.0 16.5 16.2 84 1.7 NNE 24 30 13 16 1016.7 1016.6 0.0
07/01:00am 19.1 16.6 16.1 83 1.8 N 24 30 13 16 1016.8 1016.7 0.0
07/12:30am 19.2 16.6 15.9 81 2.0 NNE 24 30 13 16 1017.0 1016.9 0.0
07/12:00am 19.3 16.6 15.6 79 2.2 N 24 30 13 16 1017.1 1017.0 0.0
 
Date/Time
EDT
Temp
°C
App
Temp
°C
Dew
Point
Rel
Hum
%
Delta-T
°C
Wind Press
QNH
hPa
Press
MSL
hPa
Rain
since 9 am
mm
Dir
 
Spd
km/h
Gust
km/h
Spd
kts
Gust
kts
06/11:30pm 19.3 16.1 15.2 77 2.4 N 26 32 14 17 1017.2 1017.1 0.0
06/11:00pm 19.3 16.6 15.6 79 2.2 N 24 32 13 17 1017.3 1017.2 0.0
06/10:30pm 19.6 16.8 16.4 82 1.9 N 26 32 14 17 1017.5 1017.4 0.0
06/10:00pm 19.4 19.0 16.2 82 1.9 NNE 13 17 7 9 1018.0 1018.0 0.0
06/09:30pm 19.4 17.9 16.2 82 1.9 NNE 19 22 10 12 1017.8 1017.8 0.0
06/09:00pm 19.6 18.1 16.3 81 2.0 NNE 19 20 10 11 1017.7 1017.6 0.0
06/08:30pm 19.8 18.1 16.3 80 2.1 NNE 20 24 11 13 1017.5 1017.4 0.0
06/08:00pm 20.0 18.5 16.4 80 2.2 NNE 19 24 10 13 1017.6 1017.5 0.0
06/07:30pm 20.2 17.7 16.2 78 2.4 NNE 24 28 13 15 1017.4 1017.3 0.0
06/07:00pm 20.5 17.3 16.3 77 2.5 N 28 32 15 17 1017.2 1017.1 0.0
06/06:30pm 21.1 19.0 16.1 73 3.0 N 22 28 12 15 1017.1 1017.0 0.0
06/06:00pm 21.9 20.4 16.4 71 3.3 N 19 24 10 13 1017.3 1017.2 0.0
06/05:30pm 21.8 20.1 16.3 71 3.3 N 20 24 11 13 1017.5 1017.4 0.0
06/05:00pm 21.9 19.5 16.4 71 3.3 N 24 30 13 16 1017.6 1017.5 0.0
06/04:30pm 22.0 19.9 16.1 69 3.6 N 22 30 12 16 1017.8 1017.8 0.0
06/04:00pm 21.6 19.8 16.1 71 3.3 N 20 26 11 14 1017.9 1017.9 0.0
06/03:30pm 22.5 20.5 15.6 65 4.1 N 20 26 11 14 1018.2 1018.2 0.0
06/03:00pm 23.0 20.7 15.8 64 4.3 N 22 26 12 14 1018.5 1018.5 0.0
06/02:30pm 22.5 19.9 15.8 66 4.0 N 24 30 13 16 1018.5 1018.5 0.0
06/02:00pm 22.8 20.0 15.4 63 4.4 N 24 28 13 15 1018.8 1018.8 0.0
06/01:30pm 21.9 18.7 15.3 66 3.9 N 26 30 14 16 1019.1 1019.1 0.0
06/01:00pm 22.0 18.8 15.4 66 3.9 N 26 30 14 16 1019.2 1019.2 0.0
06/12:30pm 21.6 18.0 15.2 67 3.8 N 28 32 15 17 1019.5 1019.5 0.0
06/12:00pm 21.3 17.3 15.2 68 3.6 N 30 33 16 18 1019.9 1019.9 0.0
06/11:30am 20.9 16.9 15.2 70 3.4 N 30 33 16 18 1020.2 1020.2 0.0
06/11:00am 20.6 16.3 14.3 67 3.7 N 30 35 16 19 1020.3 1020.3 0.0
06/10:30am 20.5 16.7 14.6 69 3.5 N 28 32 15 17 1020.5 1020.5 0.0
06/10:00am 20.1 17.0 15.7 76 2.6 N 26 28 14 15 1020.8 1020.8 0.0
06/09:30am 19.9 17.4 16.2 79 2.2 N 24 28 13 15 1021.0 1021.0 0.0
06/09:00am 19.4 18.1 15.7 79 2.2 N 17 20 9 11 1021.1 1021.1 -
06/08:30am 18.6 17.3 15.7 83 1.7 N 17 19 9 10 1021.0 1021.0 -
06/08:00am 18.1 16.9 15.0 82 1.8 NNW 15 17 8 9 1020.8 1020.8 -
06/07:30am 18.1 16.4 14.8 81 1.9 N 17 20 9 11 1020.5 1020.5 -
06/07:00am 17.8 16.0 14.5 81 1.9 N 17 20 9 11 1020.3 1020.3 -
06/06:30am 17.7 15.8 14.2 80 2.0 NNE 17 22 9 12 1020.1 1020.1 -
06/06:00am 17.6 15.6 13.9 79 2.1 NNE 17 22 9 12 1020.0 1020.0 -
06/05:30am 17.5 15.5 13.8 79 2.1 NNE 17 20 9 11 1020.0 1020.0 -
06/05:00am 17.1 15.8 13.8 81 1.9 NNE 13 19 7 10 1020.1 1020.1 -
06/04:30am 16.7 16.1 13.6 82 1.7 NE 9 13 5 7 1020.3 1020.3 -
06/04:00am 17.1 16.5 13.6 80 2.0 NE 9 13 5 7 1020.6 1020.6 -
06/03:30am 16.8 16.4 13.1 79 2.1 NE 7 11 4 6 1020.9 1020.9 -
06/03:00am 16.5 16.3 13.6 83 1.6 ENE 7 9 4 5 1021.4 1021.4 0.0
06/02:30am 16.7 16.3 13.0 79 2.1 E 7 9 4 5 1021.7 1021.7 -
06/02:00am 16.4 16.1 12.8 79 2.0 ENE 6 7 3 4 1022.0 1022.0 -
06/01:30am 16.9 16.7 13.0 78 2.2 E 6 7 3 4 1022.5 1022.5 -
06/01:00am 16.9 16.4 12.8 77 2.3 ENE 7 9 4 5 1022.8 1022.8 -
06/12:30am 17.3 16.9 13.0 76 2.4 ENE 7 9 4 5 1023.2 1023.2 -
06/12:00am 17.2 16.4 12.9 76 2.4 ENE 9 15 5 8 1023.4 1023.4 -
 
Date/Time
EDT
Temp
°C
App
Temp
°C
Dew
Point
Rel
Hum
%
Delta-T
°C
Wind Press
QNH
hPa
Press
MSL
hPa
Rain
since 9 am
mm
Dir
 
Spd
km/h
Gust
km/h
Spd
kts
Gust
kts
05/11:30pm 17.3 16.5 13.0 76 2.4 ENE 9 11 5 6 1023.6 1023.6 -
05/11:00pm 17.4 16.2 12.9 75 2.5 E 11 15 6 8 1023.6 1023.6 -
05/10:30pm 17.3 16.1 12.8 75 2.5 E 11 17 6 9 1023.8 1023.8 -
05/10:00pm 17.3 16.2 13.0 76 2.4 ENE 11 15 6 8 1023.8 1023.8 -
05/09:30pm 17.1 16.0 13.0 77 2.3 ENE 11 15 6 8 1023.7 1023.7 -
05/09:00pm 17.1 15.5 12.8 76 2.4 E 13 17 7 9 1023.3 1023.3 0.0
05/08:30pm 17.1 15.2 13.0 77 2.3 E 15 20 8 11 1023.0 1023.0 -
05/08:00pm 17.4 14.6 12.7 74 2.6 ESE 19 22 10 12 1022.8 1022.8 -
05/07:30pm 17.8 15.1 12.9 73 2.7 ESE 19 24 10 13 1022.5 1022.5 -
05/07:00pm 18.2 15.5 12.9 71 3.0 ESE 19 24 10 13 1022.1 1022.1 -
05/06:30pm 18.4 15.1 12.8 70 3.1 ESE 22 26 12 14 1021.8 1021.8 -
05/06:00pm 18.6 15.4 13.0 70 3.1 ESE 22 28 12 15 1021.8 1021.8 -
05/05:30pm 19.0 15.2 12.5 66 3.6 ESE 24 28 13 15 1022.0 1022.0 -
05/05:00pm 19.0 15.1 12.0 64 3.9 ESE 24 30 13 16 1022.1 1022.1 -
05/04:30pm 19.5 16.0 12.3 63 4.0 ESE 22 28 12 15 1022.1 1022.1 -
05/04:00pm 19.6 16.2 12.6 64 3.9 ESE 22 28 12 15 1022.0 1022.0 -
05/03:30pm 19.3 16.4 12.8 66 3.7 E 20 26 11 14 1022.1 1022.1 -
05/03:00pm 19.6 17.1 12.4 63 4.0 ESE 17 24 9 13 1022.0 1022.0 -
05/02:30pm 19.7 19.0 13.2 66 3.7 W 9 15 5 8 1022.2 1022.2 -

Other Formats:

Comma delimited format used in spreadsheet applications
http://www.bom.gov.au/fwo/IDT60801/IDT60801.95988.axf

JavaScript Object Notation format (JSON) in row-major order
http://www.bom.gov.au/fwo/IDT60801/IDT60801.95988.json